sensor_id;sensor_type;location;lat;lon;timestamp;temperature;humidity
74661;SHT31;63191;39.566;2.654;2023-07-13T00:00:35;27.74;77.12
74661;SHT31;63191;39.566;2.654;2023-07-13T00:03:02;27.72;77.10
74661;SHT31;63191;39.566;2.654;2023-07-13T00:05:29;27.69;77.10
74661;SHT31;63191;39.566;2.654;2023-07-13T00:07:56;27.67;77.12
74661;SHT31;63191;39.566;2.654;2023-07-13T00:10:22;27.65;77.18
74661;SHT31;63191;39.566;2.654;2023-07-13T00:12:48;27.62;77.23
74661;SHT31;63191;39.566;2.654;2023-07-13T00:15:19;27.60;77.30
74661;SHT31;63191;39.566;2.654;2023-07-13T00:17:57;27.57;77.30
74661;SHT31;63191;39.566;2.654;2023-07-13T00:20:23;27.57;77.29
74661;SHT31;63191;39.566;2.654;2023-07-13T00:22:50;27.57;77.33
74661;SHT31;63191;39.566;2.654;2023-07-13T00:25:19;27.56;77.29
74661;SHT31;63191;39.566;2.654;2023-07-13T00:27:49;27.56;77.22
74661;SHT31;63191;39.566;2.654;2023-07-13T00:30:16;27.57;77.25
74661;SHT31;63191;39.566;2.654;2023-07-13T00:32:42;27.56;77.20
74661;SHT31;63191;39.566;2.654;2023-07-13T00:35:08;27.57;77.16
74661;SHT31;63191;39.566;2.654;2023-07-13T00:37:34;27.57;77.12
74661;SHT31;63191;39.566;2.654;2023-07-13T00:40:04;27.57;77.08
74661;SHT31;63191;39.566;2.654;2023-07-13T00:42:31;27.57;77.00
74661;SHT31;63191;39.566;2.654;2023-07-13T00:45:01;27.56;76.93
74661;SHT31;63191;39.566;2.654;2023-07-13T00:47:37;27.56;76.87
74661;SHT31;63191;39.566;2.654;2023-07-13T00:50:05;27.54;76.78
74661;SHT31;63191;39.566;2.654;2023-07-13T00:52:35;27.53;76.68
74661;SHT31;63191;39.566;2.654;2023-07-13T00:55:03;27.52;76.56
74661;SHT31;63191;39.566;2.654;2023-07-13T00:57:30;27.52;76.46
74661;SHT31;63191;39.566;2.654;2023-07-13T00:59:57;27.52;76.36
74661;SHT31;63191;39.566;2.654;2023-07-13T01:02:25;27.52;76.22
74661;SHT31;63191;39.566;2.654;2023-07-13T01:04:52;27.52;76.14
74661;SHT31;63191;39.566;2.654;2023-07-13T01:07:18;27.51;76.06
74661;SHT31;63191;39.566;2.654;2023-07-13T01:09:44;27.52;76.00
74661;SHT31;63191;39.566;2.654;2023-07-13T01:12:10;27.52;75.95
74661;SHT31;63191;39.566;2.654;2023-07-13T01:14:39;27.52;75.88
74661;SHT31;63191;39.566;2.654;2023-07-13T01:17:06;27.53;75.81
74661;SHT31;63191;39.566;2.654;2023-07-13T01:19:42;27.53;75.72
74661;SHT31;63191;39.566;2.654;2023-07-13T01:22:14;27.52;75.57
74661;SHT31;63191;39.566;2.654;2023-07-13T01:24:43;27.53;75.43
74661;SHT31;63191;39.566;2.654;2023-07-13T01:27:13;27.52;75.40
74661;SHT31;63191;39.566;2.654;2023-07-13T01:29:43;27.50;75.30
74661;SHT31;63191;39.566;2.654;2023-07-13T01:32:13;27.49;75.30
74661;SHT31;63191;39.566;2.654;2023-07-13T01:34:47;27.48;75.29
74661;SHT31;63191;39.566;2.654;2023-07-13T01:37:13;27.47;75.25
74661;SHT31;63191;39.566;2.654;2023-07-13T01:39:39;27.46;75.21
74661;SHT31;63191;39.566;2.654;2023-07-13T01:42:05;27.46;75.16
74661;SHT31;63191;39.566;2.654;2023-07-13T01:44:31;27.43;75.03
74661;SHT31;63191;39.566;2.654;2023-07-13T01:46:58;27.40;74.92
74661;SHT31;63191;39.566;2.654;2023-07-13T01:49:23;27.37;74.90
74661;SHT31;63191;39.566;2.654;2023-07-13T01:51:49;27.36;74.90
74661;SHT31;63191;39.566;2.654;2023-07-13T01:54:15;27.34;74.90
74661;SHT31;63191;39.566;2.654;2023-07-13T01:56:42;27.34;74.95
74661;SHT31;63191;39.566;2.654;2023-07-13T01:59:08;27.32;74.92
74661;SHT31;63191;39.566;2.654;2023-07-13T02:01:34;27.31;74.93
74661;SHT31;63191;39.566;2.654;2023-07-13T02:04:00;27.30;75.00
74661;SHT31;63191;39.566;2.654;2023-07-13T02:06:27;27.29;75.01
74661;SHT31;63191;39.566;2.654;2023-07-13T02:08:52;27.28;74.99
74661;SHT31;63191;39.566;2.654;2023-07-13T02:11:18;27.26;74.87
74661;SHT31;63191;39.566;2.654;2023-07-13T02:13:44;27.24;74.74
74661;SHT31;63191;39.566;2.654;2023-07-13T02:16:09;27.22;74.71
74661;SHT31;63191;39.566;2.654;2023-07-13T02:18:35;27.19;74.60
74661;SHT31;63191;39.566;2.654;2023-07-13T02:21:01;27.17;74.56
74661;SHT31;63191;39.566;2.654;2023-07-13T02:23:27;27.16;74.51
74661;SHT31;63191;39.566;2.654;2023-07-13T02:25:57;27.13;74.48
74661;SHT31;63191;39.566;2.654;2023-07-13T02:28:23;27.12;74.28
74661;SHT31;63191;39.566;2.654;2023-07-13T02:30:49;27.10;74.12
74661;SHT31;63191;39.566;2.654;2023-07-13T02:33:15;27.08;73.98
74661;SHT31;63191;39.566;2.654;2023-07-13T02:35:41;27.05;73.89
74661;SHT31;63191;39.566;2.654;2023-07-13T02:38:07;27.03;73.82
74661;SHT31;63191;39.566;2.654;2023-07-13T02:40:33;27.01;73.80
74661;SHT31;63191;39.566;2.654;2023-07-13T02:43:01;27.00;73.81
74661;SHT31;63191;39.566;2.654;2023-07-13T02:45:27;26.99;73.80
74661;SHT31;63191;39.566;2.654;2023-07-13T02:47:53;26.98;73.74
74661;SHT31;63191;39.566;2.654;2023-07-13T02:50:19;26.94;73.75
74661;SHT31;63191;39.566;2.654;2023-07-13T02:52:45;26.91;73.73
74661;SHT31;63191;39.566;2.654;2023-07-13T02:55:11;26.88;73.80
74661;SHT31;63191;39.566;2.654;2023-07-13T02:57:37;26.86;73.74
74661;SHT31;63191;39.566;2.654;2023-07-13T03:00:03;26.84;73.73
74661;SHT31;63191;39.566;2.654;2023-07-13T03:02:31;26.81;73.75
74661;SHT31;63191;39.566;2.654;2023-07-13T03:04:58;26.80;73.79
74661;SHT31;63191;39.566;2.654;2023-07-13T03:07:24;26.78;73.73
74661;SHT31;63191;39.566;2.654;2023-07-13T03:09:54;26.76;73.60
74661;SHT31;63191;39.566;2.654;2023-07-13T03:12:22;26.73;73.60
74661;SHT31;63191;39.566;2.654;2023-07-13T03:14:49;26.70;73.60
74661;SHT31;63191;39.566;2.654;2023-07-13T03:17:14;26.66;73.56
74661;SHT31;63191;39.566;2.654;2023-07-13T03:19:40;26.65;73.43
74661;SHT31;63191;39.566;2.654;2023-07-13T03:22:06;26.63;73.29
74661;SHT31;63191;39.566;2.654;2023-07-13T03:24:32;26.61;73.17
74661;SHT31;63191;39.566;2.654;2023-07-13T03:27:00;26.61;73.02
74661;SHT31;63191;39.566;2.654;2023-07-13T03:29:28;26.58;72.99
74661;SHT31;63191;39.566;2.654;2023-07-13T03:31:54;26.57;72.98
74661;SHT31;63191;39.566;2.654;2023-07-13T03:34:20;26.55;73.00
74661;SHT31;63191;39.566;2.654;2023-07-13T03:36:45;26.52;73.00
74661;SHT31;63191;39.566;2.654;2023-07-13T03:39:11;26.52;73.00
74661;SHT31;63191;39.566;2.654;2023-07-13T03:41:37;26.52;73.00
74661;SHT31;63191;39.566;2.654;2023-07-13T03:44:02;26.52;72.94
74661;SHT31;63191;39.566;2.654;2023-07-13T03:46:29;26.50;72.82
74661;SHT31;63191;39.566;2.654;2023-07-13T03:48:54;26.47;72.59
74661;SHT31;63191;39.566;2.654;2023-07-13T03:51:21;26.46;72.37
74661;SHT31;63191;39.566;2.654;2023-07-13T03:53:47;26.45;72.22
74661;SHT31;63191;39.566;2.654;2023-07-13T03:56:13;26.44;72.18
74661;SHT31;63191;39.566;2.654;2023-07-13T03:58:41;26.43;72.06
74661;SHT31;63191;39.566;2.654;2023-07-13T04:01:10;26.41;71.99
74661;SHT31;63191;39.566;2.654;2023-07-13T04:03:37;26.39;71.87
74661;SHT31;63191;39.566;2.654;2023-07-13T04:06:04;26.37;71.80
74661;SHT31;63191;39.566;2.654;2023-07-13T04:08:36;26.35;71.51
74661;SHT31;63191;39.566;2.654;2023-07-13T04:11:03;26.32;71.20
74661;SHT31;63191;39.566;2.654;2023-07-13T04:13:29;26.30;71.05
74661;SHT31;63191;39.566;2.654;2023-07-13T04:15:55;26.28;70.72
74661;SHT31;63191;39.566;2.654;2023-07-13T04:18:21;26.28;70.00
74661;SHT31;63191;39.566;2.654;2023-07-13T04:20:48;26.27;69.71
74661;SHT31;63191;39.566;2.654;2023-07-13T04:23:16;26.27;69.24
74661;SHT31;63191;39.566;2.654;2023-07-13T04:25:46;26.26;68.76
74661;SHT31;63191;39.566;2.654;2023-07-13T04:28:14;26.25;68.07
74661;SHT31;63191;39.566;2.654;2023-07-13T04:30:42;26.24;67.53
74661;SHT31;63191;39.566;2.654;2023-07-13T04:33:08;26.22;67.19
74661;SHT31;63191;39.566;2.654;2023-07-13T04:35:35;26.22;66.93
74661;SHT31;63191;39.566;2.654;2023-07-13T04:38:01;26.21;66.80
74661;SHT31;63191;39.566;2.654;2023-07-13T04:40:27;26.20;66.39
74661;SHT31;63191;39.566;2.654;2023-07-13T04:42:54;26.19;66.16
74661;SHT31;63191;39.566;2.654;2023-07-13T04:45:21;26.19;66.03
74661;SHT31;63191;39.566;2.654;2023-07-13T04:47:49;26.19;65.89
74661;SHT31;63191;39.566;2.654;2023-07-13T04:50:14;26.20;65.75
74661;SHT31;63191;39.566;2.654;2023-07-13T04:52:45;26.22;65.66
74661;SHT31;63191;39.566;2.654;2023-07-13T04:55:12;26.27;65.49
74661;SHT31;63191;39.566;2.654;2023-07-13T04:57:38;26.30;65.34
74661;SHT31;63191;39.566;2.654;2023-07-13T05:00:04;26.33;65.25
74661;SHT31;63191;39.566;2.654;2023-07-13T05:02:32;26.36;65.15
74661;SHT31;63191;39.566;2.654;2023-07-13T05:04:59;26.39;65.11
74661;SHT31;63191;39.566;2.654;2023-07-13T05:07:25;26.42;65.09
74661;SHT31;63191;39.566;2.654;2023-07-13T05:09:52;26.45;65.01
74661;SHT31;63191;39.566;2.654;2023-07-13T05:12:18;26.47;64.90
74661;SHT31;63191;39.566;2.654;2023-07-13T05:14:44;26.50;64.82
74661;SHT31;63191;39.566;2.654;2023-07-13T05:17:10;26.54;64.84
74661;SHT31;63191;39.566;2.654;2023-07-13T05:19:36;26.57;64.81
74661;SHT31;63191;39.566;2.654;2023-07-13T05:22:03;26.61;64.54
74661;SHT31;63191;39.566;2.654;2023-07-13T05:24:29;26.67;64.60
74661;SHT31;63191;39.566;2.654;2023-07-13T05:26:55;26.71;64.52
74661;SHT31;63191;39.566;2.654;2023-07-13T05:29:21;26.76;64.40
74661;SHT31;63191;39.566;2.654;2023-07-13T05:31:47;26.81;64.30
74661;SHT31;63191;39.566;2.654;2023-07-13T05:34:14;26.86;64.10
74661;SHT31;63191;39.566;2.654;2023-07-13T05:36:40;26.90;63.99
74661;SHT31;63191;39.566;2.654;2023-07-13T05:39:06;26.95;63.90
74661;SHT31;63191;39.566;2.654;2023-07-13T05:41:32;27.00;63.68
74661;SHT31;63191;39.566;2.654;2023-07-13T05:43:58;27.06;63.51
74661;SHT31;63191;39.566;2.654;2023-07-13T05:46:25;27.12;63.60
74661;SHT31;63191;39.566;2.654;2023-07-13T05:48:51;27.17;63.43
74661;SHT31;63191;39.566;2.654;2023-07-13T05:51:17;27.24;63.35
74661;SHT31;63191;39.566;2.654;2023-07-13T05:53:42;27.30;63.37
74661;SHT31;63191;39.566;2.654;2023-07-13T05:56:08;27.38;63.21
74661;SHT31;63191;39.566;2.654;2023-07-13T05:58:34;27.45;63.16
74661;SHT31;63191;39.566;2.654;2023-07-13T06:01:01;27.51;62.94
74661;SHT31;63191;39.566;2.654;2023-07-13T06:03:30;27.59;62.63
74661;SHT31;63191;39.566;2.654;2023-07-13T06:05:57;27.66;62.51
74661;SHT31;63191;39.566;2.654;2023-07-13T06:08:25;27.73;62.26
74661;SHT31;63191;39.566;2.654;2023-07-13T06:10:52;27.78;61.98
74661;SHT31;63191;39.566;2.654;2023-07-13T06:13:18;27.86;61.77
74661;SHT31;63191;39.566;2.654;2023-07-13T06:15:53;27.94;61.57
74661;SHT31;63191;39.566;2.654;2023-07-13T06:18:18;28.01;61.33
74661;SHT31;63191;39.566;2.654;2023-07-13T06:20:44;28.09;61.21
74661;SHT31;63191;39.566;2.654;2023-07-13T06:23:10;28.15;60.98
74661;SHT31;63191;39.566;2.654;2023-07-13T06:25:36;28.23;60.68
74661;SHT31;63191;39.566;2.654;2023-07-13T06:28:01;28.30;60.38
74661;SHT31;63191;39.566;2.654;2023-07-13T06:30:27;28.38;60.27
74661;SHT31;63191;39.566;2.654;2023-07-13T06:32:53;28.44;59.90
74661;SHT31;63191;39.566;2.654;2023-07-13T06:35:19;28.51;59.91
74661;SHT31;63191;39.566;2.654;2023-07-13T06:37:45;28.57;59.63
74661;SHT31;63191;39.566;2.654;2023-07-13T06:40:12;28.64;59.08
74661;SHT31;63191;39.566;2.654;2023-07-13T06:42:38;28.70;58.97
74661;SHT31;63191;39.566;2.654;2023-07-13T06:45:06;28.77;59.00
74661;SHT31;63191;39.566;2.654;2023-07-13T06:47:32;28.87;59.03
74661;SHT31;63191;39.566;2.654;2023-07-13T06:49:59;28.97;58.55
74661;SHT31;63191;39.566;2.654;2023-07-13T06:52:25;29.05;58.30
74661;SHT31;63191;39.566;2.654;2023-07-13T06:54:51;29.14;58.44
74661;SHT31;63191;39.566;2.654;2023-07-13T06:57:16;29.24;58.22
74661;SHT31;63191;39.566;2.654;2023-07-13T06:59:42;29.30;58.01
74661;SHT31;63191;39.566;2.654;2023-07-13T07:02:09;29.38;57.76
74661;SHT31;63191;39.566;2.654;2023-07-13T07:04:36;29.46;57.71
74661;SHT31;63191;39.566;2.654;2023-07-13T07:07:02;29.54;57.48
74661;SHT31;63191;39.566;2.654;2023-07-13T07:09:28;29.61;57.03
74661;SHT31;63191;39.566;2.654;2023-07-13T07:11:56;29.65;56.83
74661;SHT31;63191;39.566;2.654;2023-07-13T07:14:22;29.71;56.99
74661;SHT31;63191;39.566;2.654;2023-07-13T07:16:49;29.79;56.72
74661;SHT31;63191;39.566;2.654;2023-07-13T07:19:15;29.85;56.63
74661;SHT31;63191;39.566;2.654;2023-07-13T07:21:41;29.90;56.08
74661;SHT31;63191;39.566;2.654;2023-07-13T07:24:07;29.96;55.76
74661;SHT31;63191;39.566;2.654;2023-07-13T07:26:33;30.03;55.87
74661;SHT31;63191;39.566;2.654;2023-07-13T07:28:59;30.08;55.54
74661;SHT31;63191;39.566;2.654;2023-07-13T07:31:25;30.14;55.28
74661;SHT31;63191;39.566;2.654;2023-07-13T07:33:51;30.20;55.18
74661;SHT31;63191;39.566;2.654;2023-07-13T07:36:17;30.26;54.87
74661;SHT31;63191;39.566;2.654;2023-07-13T07:38:43;30.31;54.75
74661;SHT31;63191;39.566;2.654;2023-07-13T07:41:09;30.36;54.54
74661;SHT31;63191;39.566;2.654;2023-07-13T07:43:35;30.41;54.39
74661;SHT31;63191;39.566;2.654;2023-07-13T07:46:01;30.49;54.31
74661;SHT31;63191;39.566;2.654;2023-07-13T07:48:28;30.62;54.39
74661;SHT31;63191;39.566;2.654;2023-07-13T07:50:54;30.76;54.48
74661;SHT31;63191;39.566;2.654;2023-07-13T07:53:20;30.91;53.94
74661;SHT31;63191;39.566;2.654;2023-07-13T07:55:45;31.01;53.30
74661;SHT31;63191;39.566;2.654;2023-07-13T07:58:12;31.08;52.39
74661;SHT31;63191;39.566;2.654;2023-07-13T08:00:38;31.10;51.42
74661;SHT31;63191;39.566;2.654;2023-07-13T08:03:04;31.13;51.21
74661;SHT31;63191;39.566;2.654;2023-07-13T08:05:29;31.19;51.06
74661;SHT31;63191;39.566;2.654;2023-07-13T08:07:55;31.23;50.44
74661;SHT31;63191;39.566;2.654;2023-07-13T08:10:21;31.22;49.13
74661;SHT31;63191;39.566;2.654;2023-07-13T08:12:47;31.19;48.67
74661;SHT31;63191;39.566;2.654;2023-07-13T08:15:13;31.19;48.66
74661;SHT31;63191;39.566;2.654;2023-07-13T08:17:41;31.23;48.60
74661;SHT31;63191;39.566;2.654;2023-07-13T08:20:07;31.27;47.85
74661;SHT31;63191;39.566;2.654;2023-07-13T08:22:36;31.32;47.04
74661;SHT31;63191;39.566;2.654;2023-07-13T08:25:02;31.36;46.26
74661;SHT31;63191;39.566;2.654;2023-07-13T08:27:28;31.41;46.28
74661;SHT31;63191;39.566;2.654;2023-07-13T08:29:54;31.48;46.07
74661;SHT31;63191;39.566;2.654;2023-07-13T08:32:21;31.54;45.71
74661;SHT31;63191;39.566;2.654;2023-07-13T08:34:48;31.56;45.06
74661;SHT31;63191;39.566;2.654;2023-07-13T08:37:14;31.56;45.20
74661;SHT31;63191;39.566;2.654;2023-07-13T08:39:40;31.59;45.87
74661;SHT31;63191;39.566;2.654;2023-07-13T08:45:33;31.69;46.27
74661;SHT31;63191;39.566;2.654;2023-07-13T08:48:20;31.73;46.28
74661;SHT31;63191;39.566;2.654;2023-07-13T08:54:04;31.74;46.30
74661;SHT31;63191;39.566;2.654;2023-07-13T08:56:38;31.78;45.89
74661;SHT31;63191;39.566;2.654;2023-07-13T08:59:13;31.81;45.24
74661;SHT31;63191;39.566;2.654;2023-07-13T09:04:53;31.94;45.15
74661;SHT31;63191;39.566;2.654;2023-07-13T09:07:39;31.99;45.03
74661;SHT31;63191;39.566;2.654;2023-07-13T09:10:39;32.07;44.36
74661;SHT31;63191;39.566;2.654;2023-07-13T09:16:33;32.22;44.08
74661;SHT31;63191;39.566;2.654;2023-07-13T09:19:02;32.26;43.81
74661;SHT31;63191;39.566;2.654;2023-07-13T09:21:32;32.34;44.36
74661;SHT31;63191;39.566;2.654;2023-07-13T09:26:58;32.44;44.67
74661;SHT31;63191;39.566;2.654;2023-07-13T09:29:29;32.51;44.27
74661;SHT31;63191;39.566;2.654;2023-07-13T09:32:01;32.61;43.90
74661;SHT31;63191;39.566;2.654;2023-07-13T09:34:29;32.70;43.97
74661;SHT31;63191;39.566;2.654;2023-07-13T09:36:57;32.71;43.91
74661;SHT31;63191;39.566;2.654;2023-07-13T09:39:30;32.70;43.67
74661;SHT31;63191;39.566;2.654;2023-07-13T09:42:15;32.71;43.45
74661;SHT31;63191;39.566;2.654;2023-07-13T09:44:56;32.77;42.09
74661;SHT31;63191;39.566;2.654;2023-07-13T09:47:28;32.79;41.61
74661;SHT31;63191;39.566;2.654;2023-07-13T09:50:03;32.81;41.46
74661;SHT31;63191;39.566;2.654;2023-07-13T09:52:47;32.81;41.05
74661;SHT31;63191;39.566;2.654;2023-07-13T09:55:25;32.85;40.97
74661;SHT31;63191;39.566;2.654;2023-07-13T09:57:56;32.98;41.02
74661;SHT31;63191;39.566;2.654;2023-07-13T10:00:24;33.10;41.50
74661;SHT31;63191;39.566;2.654;2023-07-13T10:03:01;33.14;41.51
74661;SHT31;63191;39.566;2.654;2023-07-13T10:05:40;33.15;40.88
74661;SHT31;63191;39.566;2.654;2023-07-13T10:08:28;33.16;40.47
74661;SHT31;63191;39.566;2.654;2023-07-13T10:10:59;33.21;40.95
74661;SHT31;63191;39.566;2.654;2023-07-13T10:13:32;33.22;41.25
74661;SHT31;63191;39.566;2.654;2023-07-13T10:16:02;33.26;41.56
74661;SHT31;63191;39.566;2.654;2023-07-13T10:18:31;33.33;41.67
74661;SHT31;63191;39.566;2.654;2023-07-13T10:21:26;33.45;41.59
74661;SHT31;63191;39.566;2.654;2023-07-13T10:24:00;33.59;41.17
74661;SHT31;63191;39.566;2.654;2023-07-13T10:26:48;33.70;39.79
74661;SHT31;63191;39.566;2.654;2023-07-13T10:29:38;33.79;39.66
74661;SHT31;63191;39.566;2.654;2023-07-13T10:32:11;33.88;40.08
74661;SHT31;63191;39.566;2.654;2023-07-13T10:34:39;33.95;38.67
74661;SHT31;63191;39.566;2.654;2023-07-13T10:37:15;33.95;38.43
74661;SHT31;63191;39.566;2.654;2023-07-13T10:39:46;33.94;38.87
74661;SHT31;63191;39.566;2.654;2023-07-13T10:42:14;34.00;39.12
74661;SHT31;63191;39.566;2.654;2023-07-13T10:44:59;34.06;39.24
74661;SHT31;63191;39.566;2.654;2023-07-13T10:47:25;34.09;38.91
74661;SHT31;63191;39.566;2.654;2023-07-13T10:49:53;34.05;38.79
74661;SHT31;63191;39.566;2.654;2023-07-13T10:55:40;34.19;39.36
74661;SHT31;63191;39.566;2.654;2023-07-13T10:58:20;34.35;38.91
74661;SHT31;63191;39.566;2.654;2023-07-13T11:06:11;34.59;37.89
74661;SHT31;63191;39.566;2.654;2023-07-13T11:09:00;34.74;37.63
74661;SHT31;63191;39.566;2.654;2023-07-13T11:11:59;34.91;37.20
74661;SHT31;63191;39.566;2.654;2023-07-13T11:14:36;35.03;37.01
74661;SHT31;63191;39.566;2.654;2023-07-13T11:20:40;35.22;36.39
74661;SHT31;63191;39.566;2.654;2023-07-13T11:23:07;35.40;36.37
74661;SHT31;63191;39.566;2.654;2023-07-13T11:25:37;35.54;35.60
74661;SHT31;63191;39.566;2.654;2023-07-13T11:43:55;36.08;34.52
74661;SHT31;63191;39.566;2.654;2023-07-13T11:46:44;36.22;34.07
74661;SHT31;63191;39.566;2.654;2023-07-13T11:49:22;36.27;33.66
74661;SHT31;63191;39.566;2.654;2023-07-13T11:51:52;36.36;33.44
74661;SHT31;63191;39.566;2.654;2023-07-13T11:56:59;36.59;32.79
74661;SHT31;63191;39.566;2.654;2023-07-13T11:59:43;36.85;33.14
74661;SHT31;63191;39.566;2.654;2023-07-13T12:02:43;37.20;32.53
74661;SHT31;63191;39.566;2.654;2023-07-13T12:05:04;37.62;32.40
74661;SHT31;63191;39.566;2.654;2023-07-13T12:07:34;38.30;32.04
74661;SHT31;63191;39.566;2.654;2023-07-13T12:10:25;39.21;31.16
74661;SHT31;63191;39.566;2.654;2023-07-13T12:15:40;41.80;28.46
74661;SHT31;63191;39.566;2.654;2023-07-13T12:18:18;43.01;27.20
74661;SHT31;63191;39.566;2.654;2023-07-13T12:20:49;44.26;25.75
74661;SHT31;63191;39.566;2.654;2023-07-13T12:23:33;45.13;24.66
74661;SHT31;63191;39.566;2.654;2023-07-13T12:26:04;46.04;24.55
74661;SHT31;63191;39.566;2.654;2023-07-13T12:31:08;47.85;21.72
74661;SHT31;63191;39.566;2.654;2023-07-13T12:34:14;48.56;20.94
74661;SHT31;63191;39.566;2.654;2023-07-13T12:36:59;49.19;20.80
74661;SHT31;63191;39.566;2.654;2023-07-13T12:39:34;49.95;20.40
74661;SHT31;63191;39.566;2.654;2023-07-13T12:44:58;51.49;18.70
74661;SHT31;63191;39.566;2.654;2023-07-13T12:47:27;51.98;18.41
74661;SHT31;63191;39.566;2.654;2023-07-13T12:49:55;52.40;17.99
74661;SHT31;63191;39.566;2.654;2023-07-13T12:52:28;52.83;18.05
74661;SHT31;63191;39.566;2.654;2023-07-13T12:55:07;53.40;17.28
74661;SHT31;63191;39.566;2.654;2023-07-13T12:57:49;53.71;16.60
74661;SHT31;63191;39.566;2.654;2023-07-13T13:00:28;54.06;16.60
74661;SHT31;63191;39.566;2.654;2023-07-13T13:03:05;54.46;16.31
74661;SHT31;63191;39.566;2.654;2023-07-13T13:08:51;55.60;16.01
74661;SHT31;63191;39.566;2.654;2023-07-13T13:11:20;55.83;15.34
74661;SHT31;63191;39.566;2.654;2023-07-13T13:13:48;55.86;15.31
74661;SHT31;63191;39.566;2.654;2023-07-13T13:16:31;56.01;15.34
74661;SHT31;63191;39.566;2.654;2023-07-13T13:19:23;56.22;15.22
74661;SHT31;63191;39.566;2.654;2023-07-13T13:21:52;56.57;15.11
74661;SHT31;63191;39.566;2.654;2023-07-13T13:24:23;56.99;15.24
74661;SHT31;63191;39.566;2.654;2023-07-13T13:26:51;57.50;14.52
74661;SHT31;63191;39.566;2.654;2023-07-13T13:29:22;57.59;14.30
74661;SHT31;63191;39.566;2.654;2023-07-13T13:31:50;57.82;13.83
74661;SHT31;63191;39.566;2.654;2023-07-13T13:34:18;58.05;13.78
74661;SHT31;63191;39.566;2.654;2023-07-13T13:36:44;58.04;13.74
74661;SHT31;63191;39.566;2.654;2023-07-13T13:39:19;57.82;13.54
74661;SHT31;63191;39.566;2.654;2023-07-13T13:41:51;57.64;13.69
74661;SHT31;63191;39.566;2.654;2023-07-13T13:44:19;57.69;13.60
74661;SHT31;63191;39.566;2.654;2023-07-13T13:46:47;57.83;13.39
74661;SHT31;63191;39.566;2.654;2023-07-13T13:49:18;57.84;13.34
74661;SHT31;63191;39.566;2.654;2023-07-13T13:51:49;57.92;13.44
74661;SHT31;63191;39.566;2.654;2023-07-13T13:54:16;57.98;13.39
74661;SHT31;63191;39.566;2.654;2023-07-13T13:56:46;58.13;13.64
74661;SHT31;63191;39.566;2.654;2023-07-13T13:59:14;58.42;13.18
74661;SHT31;63191;39.566;2.654;2023-07-13T14:01:41;58.37;13.16
74661;SHT31;63191;39.566;2.654;2023-07-13T14:04:19;58.58;13.23
74661;SHT31;63191;39.566;2.654;2023-07-13T14:06:47;58.73;12.79
74661;SHT31;63191;39.566;2.654;2023-07-13T14:09:15;58.53;12.69
74661;SHT31;63191;39.566;2.654;2023-07-13T14:11:43;58.29;12.90
74661;SHT31;63191;39.566;2.654;2023-07-13T14:14:17;58.33;12.88
74661;SHT31;63191;39.566;2.654;2023-07-13T14:16:46;58.39;12.97
74661;SHT31;63191;39.566;2.654;2023-07-13T14:19:20;58.33;13.12
74661;SHT31;63191;39.566;2.654;2023-07-13T14:21:46;58.40;12.89
74661;SHT31;63191;39.566;2.654;2023-07-13T14:24:14;58.59;13.08
74661;SHT31;63191;39.566;2.654;2023-07-13T14:26:41;58.78;12.66
74661;SHT31;63191;39.566;2.654;2023-07-13T14:29:11;59.00;12.73
74661;SHT31;63191;39.566;2.654;2023-07-13T14:31:40;59.33;12.48
74661;SHT31;63191;39.566;2.654;2023-07-13T14:34:07;59.19;12.24
74661;SHT31;63191;39.566;2.654;2023-07-13T14:36:37;58.98;12.76
74661;SHT31;63191;39.566;2.654;2023-07-13T14:39:14;59.15;12.69
74661;SHT31;63191;39.566;2.654;2023-07-13T14:41:45;59.12;12.57
74661;SHT31;63191;39.566;2.654;2023-07-13T14:44:15;58.96;12.57
74661;SHT31;63191;39.566;2.654;2023-07-13T14:46:43;58.88;12.82
74661;SHT31;63191;39.566;2.654;2023-07-13T14:51:55;59.10;12.75
74661;SHT31;63191;39.566;2.654;2023-07-13T14:54:23;59.20;12.72
74661;SHT31;63191;39.566;2.654;2023-07-13T14:56:49;59.06;12.64
74661;SHT31;63191;39.566;2.654;2023-07-13T14:59:16;58.89;12.56
74661;SHT31;63191;39.566;2.654;2023-07-13T15:01:44;58.74;12.38
74661;SHT31;63191;39.566;2.654;2023-07-13T15:04:11;58.47;12.61
74661;SHT31;63191;39.566;2.654;2023-07-13T15:06:54;58.37;12.67
74661;SHT31;63191;39.566;2.654;2023-07-13T15:09:26;58.25;12.36
74661;SHT31;63191;39.566;2.654;2023-07-13T15:11:54;58.27;12.46
74661;SHT31;63191;39.566;2.654;2023-07-13T15:14:21;58.35;12.60
74661;SHT31;63191;39.566;2.654;2023-07-13T15:16:49;58.29;12.40
74661;SHT31;63191;39.566;2.654;2023-07-13T15:19:19;58.06;12.19
74661;SHT31;63191;39.566;2.654;2023-07-13T15:21:46;57.86;12.38
74661;SHT31;63191;39.566;2.654;2023-07-13T15:24:12;57.54;12.50
74661;SHT31;63191;39.566;2.654;2023-07-13T15:26:39;57.28;12.74
74661;SHT31;63191;39.566;2.654;2023-07-13T15:29:05;57.19;12.75
74661;SHT31;63191;39.566;2.654;2023-07-13T15:31:31;57.18;12.86
74661;SHT31;63191;39.566;2.654;2023-07-13T15:34:04;57.35;12.98
74661;SHT31;63191;39.566;2.654;2023-07-13T15:36:36;57.44;13.03
74661;SHT31;63191;39.566;2.654;2023-07-13T15:39:02;57.52;12.73
74661;SHT31;63191;39.566;2.654;2023-07-13T15:41:28;57.55;12.63
74661;SHT31;63191;39.566;2.654;2023-07-13T15:43:55;57.50;12.68
74661;SHT31;63191;39.566;2.654;2023-07-13T15:46:23;57.31;12.55
74661;SHT31;63191;39.566;2.654;2023-07-13T15:48:50;56.99;12.60
74661;SHT31;63191;39.566;2.654;2023-07-13T15:51:23;56.98;12.78
74661;SHT31;63191;39.566;2.654;2023-07-13T15:53:50;56.93;12.97
74661;SHT31;63191;39.566;2.654;2023-07-13T15:56:25;56.78;12.76
74661;SHT31;63191;39.566;2.654;2023-07-13T15:58:53;56.67;12.89
74661;SHT31;63191;39.566;2.654;2023-07-13T16:01:20;56.57;13.06
74661;SHT31;63191;39.566;2.654;2023-07-13T16:03:47;56.41;12.90
74661;SHT31;63191;39.566;2.654;2023-07-13T16:06:15;56.21;13.07
74661;SHT31;63191;39.566;2.654;2023-07-13T16:08:47;56.08;12.97
74661;SHT31;63191;39.566;2.654;2023-07-13T16:11:22;55.66;13.27
74661;SHT31;63191;39.566;2.654;2023-07-13T16:13:51;55.37;13.50
74661;SHT31;63191;39.566;2.654;2023-07-13T16:16:21;55.23;13.45
74661;SHT31;63191;39.566;2.654;2023-07-13T16:18:55;54.82;13.66
74661;SHT31;63191;39.566;2.654;2023-07-13T16:21:22;54.34;13.64
74661;SHT31;63191;39.566;2.654;2023-07-13T16:23:51;53.89;14.06
74661;SHT31;63191;39.566;2.654;2023-07-13T16:26:39;53.58;14.26
74661;SHT31;63191;39.566;2.654;2023-07-13T16:31:40;53.01;14.86
74661;SHT31;63191;39.566;2.654;2023-07-13T16:34:06;52.90;14.76
74661;SHT31;63191;39.566;2.654;2023-07-13T16:36:35;52.51;14.82
74661;SHT31;63191;39.566;2.654;2023-07-13T16:39:09;52.07;15.22
74661;SHT31;63191;39.566;2.654;2023-07-13T16:41:37;51.81;15.65
74661;SHT31;63191;39.566;2.654;2023-07-13T16:44:07;51.71;15.95
74661;SHT31;63191;39.566;2.654;2023-07-13T16:46:37;51.60;16.21